sensor_id;sensor_type;location;lat;lon;timestamp;P1;durP1;ratioP1;P2;durP2;ratioP2
40757;SDS011;26462;47.384;19.218;2024-03-07T00:00:13;37.30;;;16.08;;
40757;SDS011;26462;47.384;19.218;2024-03-07T00:02:47;34.45;;;14.13;;
40757;SDS011;26462;47.384;19.218;2024-03-07T00:05:17;33.67;;;14.68;;
40757;SDS011;26462;47.384;19.218;2024-03-07T00:07:46;30.90;;;13.52;;
40757;SDS011;26462;47.384;19.218;2024-03-07T00:10:16;29.77;;;13.00;;
40757;SDS011;26462;47.384;19.218;2024-03-07T00:12:44;30.90;;;14.20;;
40757;SDS011;26462;47.384;19.218;2024-03-07T00:15:15;27.45;;;12.38;;
40757;SDS011;26462;47.384;19.218;2024-03-07T00:17:44;28.05;;;12.70;;
40757;SDS011;26462;47.384;19.218;2024-03-07T00:20:15;28.58;;;13.48;;
40757;SDS011;26462;47.384;19.218;2024-03-07T00:22:46;25.25;;;11.27;;
40757;SDS011;26462;47.384;19.218;2024-03-07T00:25:15;22.58;;;11.00;;
40757;SDS011;26462;47.384;19.218;2024-03-07T00:27:47;24.00;;;10.47;;
40757;SDS011;26462;47.384;19.218;2024-03-07T00:30:19;27.27;;;11.13;;
40757;SDS011;26462;47.384;19.218;2024-03-07T00:32:49;24.75;;;11.32;;
40757;SDS011;26462;47.384;19.218;2024-03-07T00:35:18;23.70;;;11.25;;
40757;SDS011;26462;47.384;19.218;2024-03-07T00:37:47;24.33;;;10.38;;
40757;SDS011;26462;47.384;19.218;2024-03-07T00:40:15;27.55;;;11.48;;
40757;SDS011;26462;47.384;19.218;2024-03-07T00:42:44;24.52;;;11.30;;
40757;SDS011;26462;47.384;19.218;2024-03-07T00:45:13;24.95;;;10.02;;
40757;SDS011;26462;47.384;19.218;2024-03-07T00:47:41;24.17;;;9.98;;
40757;SDS011;26462;47.384;19.218;2024-03-07T00:50:11;21.60;;;9.63;;
40757;SDS011;26462;47.384;19.218;2024-03-07T00:52:40;24.15;;;9.80;;
40757;SDS011;26462;47.384;19.218;2024-03-07T00:55:08;22.58;;;9.55;;
40757;SDS011;26462;47.384;19.218;2024-03-07T00:57:37;19.50;;;9.00;;
40757;SDS011;26462;47.384;19.218;2024-03-07T01:00:06;21.98;;;9.93;;
40757;SDS011;26462;47.384;19.218;2024-03-07T01:02:41;20.35;;;9.63;;
40757;SDS011;26462;47.384;19.218;2024-03-07T01:05:12;24.80;;;9.52;;
40757;SDS011;26462;47.384;19.218;2024-03-07T01:07:41;22.15;;;10.05;;
40757;SDS011;26462;47.384;19.218;2024-03-07T01:10:11;23.08;;;9.65;;
40757;SDS011;26462;47.384;19.218;2024-03-07T01:12:41;22.33;;;9.45;;
40757;SDS011;26462;47.384;19.218;2024-03-07T01:15:10;22.42;;;10.10;;
40757;SDS011;26462;47.384;19.218;2024-03-07T01:17:39;23.83;;;10.55;;
40757;SDS011;26462;47.384;19.218;2024-03-07T01:20:08;21.27;;;9.38;;
40757;SDS011;26462;47.384;19.218;2024-03-07T01:22:40;23.27;;;10.07;;
40757;SDS011;26462;47.384;19.218;2024-03-07T01:25:10;20.33;;;8.93;;
40757;SDS011;26462;47.384;19.218;2024-03-07T01:27:40;24.25;;;9.27;;
40757;SDS011;26462;47.384;19.218;2024-03-07T01:30:11;22.65;;;10.05;;
40757;SDS011;26462;47.384;19.218;2024-03-07T01:32:40;18.98;;;8.98;;
40757;SDS011;26462;47.384;19.218;2024-03-07T01:35:09;20.20;;;9.65;;
40757;SDS011;26462;47.384;19.218;2024-03-07T01:37:41;21.73;;;9.50;;
40757;SDS011;26462;47.384;19.218;2024-03-07T01:40:10;26.88;;;10.65;;
40757;SDS011;26462;47.384;19.218;2024-03-07T01:42:41;23.15;;;9.30;;
40757;SDS011;26462;47.384;19.218;2024-03-07T01:45:11;26.73;;;11.23;;
40757;SDS011;26462;47.384;19.218;2024-03-07T01:47:42;24.77;;;10.30;;
40757;SDS011;26462;47.384;19.218;2024-03-07T01:50:11;27.70;;;10.77;;
40757;SDS011;26462;47.384;19.218;2024-03-07T01:52:46;28.40;;;12.02;;
40757;SDS011;26462;47.384;19.218;2024-03-07T01:55:18;30.85;;;11.65;;
40757;SDS011;26462;47.384;19.218;2024-03-07T01:57:47;29.52;;;10.80;;
40757;SDS011;26462;47.384;19.218;2024-03-07T02:00:19;21.75;;;9.15;;
40757;SDS011;26462;47.384;19.218;2024-03-07T02:02:49;24.42;;;9.82;;
40757;SDS011;26462;47.384;19.218;2024-03-07T02:05:18;28.40;;;10.20;;
40757;SDS011;26462;47.384;19.218;2024-03-07T02:07:51;24.05;;;9.77;;
40757;SDS011;26462;47.384;19.218;2024-03-07T02:10:23;20.98;;;9.63;;
40757;SDS011;26462;47.384;19.218;2024-03-07T02:12:53;23.27;;;9.23;;
40757;SDS011;26462;47.384;19.218;2024-03-07T02:15:21;21.13;;;8.75;;
40757;SDS011;26462;47.384;19.218;2024-03-07T02:17:51;18.63;;;8.27;;
40757;SDS011;26462;47.384;19.218;2024-03-07T02:20:20;20.35;;;8.07;;
40757;SDS011;26462;47.384;19.218;2024-03-07T02:22:52;19.30;;;9.43;;
40757;SDS011;26462;47.384;19.218;2024-03-07T02:25:21;19.73;;;8.35;;
40757;SDS011;26462;47.384;19.218;2024-03-07T02:27:50;18.13;;;7.82;;
40757;SDS011;26462;47.384;19.218;2024-03-07T02:30:20;18.13;;;8.23;;
40757;SDS011;26462;47.384;19.218;2024-03-07T02:32:51;15.25;;;7.10;;
40757;SDS011;26462;47.384;19.218;2024-03-07T02:35:22;15.30;;;6.32;;
40757;SDS011;26462;47.384;19.218;2024-03-07T02:37:53;14.88;;;6.63;;
40757;SDS011;26462;47.384;19.218;2024-03-07T02:40:24;16.75;;;7.45;;
40757;SDS011;26462;47.384;19.218;2024-03-07T02:42:53;17.48;;;7.90;;
40757;SDS011;26462;47.384;19.218;2024-03-07T02:45:22;16.30;;;7.32;;
40757;SDS011;26462;47.384;19.218;2024-03-07T02:47:50;15.68;;;6.95;;
40757;SDS011;26462;47.384;19.218;2024-03-07T02:50:24;14.88;;;7.60;;
40757;SDS011;26462;47.384;19.218;2024-03-07T02:52:56;17.38;;;6.80;;
40757;SDS011;26462;47.384;19.218;2024-03-07T02:55:26;16.70;;;7.28;;
40757;SDS011;26462;47.384;19.218;2024-03-07T02:57:56;16.48;;;6.93;;
40757;SDS011;26462;47.384;19.218;2024-03-07T03:00:25;17.70;;;7.68;;
40757;SDS011;26462;47.384;19.218;2024-03-07T03:02:59;15.52;;;7.40;;
40757;SDS011;26462;47.384;19.218;2024-03-07T03:05:30;16.67;;;7.75;;
40757;SDS011;26462;47.384;19.218;2024-03-07T03:08:00;16.40;;;6.57;;
40757;SDS011;26462;47.384;19.218;2024-03-07T03:10:33;16.55;;;6.65;;
40757;SDS011;26462;47.384;19.218;2024-03-07T03:13:05;12.65;;;6.05;;
40757;SDS011;26462;47.384;19.218;2024-03-07T03:15:38;14.05;;;5.45;;
40757;SDS011;26462;47.384;19.218;2024-03-07T03:18:07;13.20;;;5.60;;
40757;SDS011;26462;47.384;19.218;2024-03-07T03:20:39;15.27;;;6.47;;
40757;SDS011;26462;47.384;19.218;2024-03-07T03:23:11;14.30;;;6.83;;
40757;SDS011;26462;47.384;19.218;2024-03-07T03:25:47;14.30;;;6.32;;
40757;SDS011;26462;47.384;19.218;2024-03-07T03:28:17;16.02;;;6.68;;
40757;SDS011;26462;47.384;19.218;2024-03-07T03:30:48;11.77;;;5.30;;
40757;SDS011;26462;47.384;19.218;2024-03-07T03:33:18;14.68;;;5.93;;
40757;SDS011;26462;47.384;19.218;2024-03-07T03:35:49;14.07;;;5.85;;
40757;SDS011;26462;47.384;19.218;2024-03-07T03:38:22;15.73;;;5.90;;
40757;SDS011;26462;47.384;19.218;2024-03-07T03:40:52;12.48;;;5.50;;
40757;SDS011;26462;47.384;19.218;2024-03-07T03:43:23;12.07;;;5.57;;
40757;SDS011;26462;47.384;19.218;2024-03-07T03:45:52;12.73;;;5.65;;
40757;SDS011;26462;47.384;19.218;2024-03-07T03:48:21;15.65;;;6.07;;
40757;SDS011;26462;47.384;19.218;2024-03-07T03:50:52;11.40;;;5.18;;
40757;SDS011;26462;47.384;19.218;2024-03-07T03:53:23;12.32;;;5.90;;
40757;SDS011;26462;47.384;19.218;2024-03-07T03:55:55;10.80;;;5.30;;
40757;SDS011;26462;47.384;19.218;2024-03-07T03:58:23;14.80;;;5.10;;
40757;SDS011;26462;47.384;19.218;2024-03-07T04:00:55;12.73;;;5.13;;
40757;SDS011;26462;47.384;19.218;2024-03-07T04:03:25;14.05;;;5.82;;
40757;SDS011;26462;47.384;19.218;2024-03-07T04:05:54;14.50;;;5.88;;
40757;SDS011;26462;47.384;19.218;2024-03-07T04:08:28;15.52;;;6.30;;
40757;SDS011;26462;47.384;19.218;2024-03-07T04:10:57;14.02;;;5.82;;
40757;SDS011;26462;47.384;19.218;2024-03-07T04:13:25;11.65;;;5.40;;
40757;SDS011;26462;47.384;19.218;2024-03-07T04:15:57;13.65;;;5.93;;
40757;SDS011;26462;47.384;19.218;2024-03-07T04:18:26;15.73;;;5.57;;
40757;SDS011;26462;47.384;19.218;2024-03-07T04:20:57;14.85;;;5.93;;
40757;SDS011;26462;47.384;19.218;2024-03-07T04:23:27;15.80;;;6.30;;
40757;SDS011;26462;47.384;19.218;2024-03-07T04:25:56;16.73;;;7.03;;
40757;SDS011;26462;47.384;19.218;2024-03-07T04:28:24;13.70;;;6.78;;
40757;SDS011;26462;47.384;19.218;2024-03-07T04:30:54;17.17;;;6.25;;
40757;SDS011;26462;47.384;19.218;2024-03-07T04:33:23;10.50;;;5.70;;
40757;SDS011;26462;47.384;19.218;2024-03-07T04:35:51;12.32;;;5.80;;
40757;SDS011;26462;47.384;19.218;2024-03-07T04:38:25;15.30;;;5.63;;
40757;SDS011;26462;47.384;19.218;2024-03-07T04:40:58;10.45;;;4.97;;
40757;SDS011;26462;47.384;19.218;2024-03-07T04:43:27;11.45;;;4.88;;
40757;SDS011;26462;47.384;19.218;2024-03-07T04:45:56;9.38;;;4.57;;
40757;SDS011;26462;47.384;19.218;2024-03-07T04:48:27;10.43;;;4.50;;
40757;SDS011;26462;47.384;19.218;2024-03-07T04:51:03;6.40;;;3.38;;
40757;SDS011;26462;47.384;19.218;2024-03-07T04:53:33;7.05;;;3.60;;
40757;SDS011;26462;47.384;19.218;2024-03-07T04:56:05;7.40;;;3.28;;
40757;SDS011;26462;47.384;19.218;2024-03-07T04:58:36;6.30;;;3.85;;
40757;SDS011;26462;47.384;19.218;2024-03-07T05:01:06;7.97;;;3.78;;
40757;SDS011;26462;47.384;19.218;2024-03-07T05:03:35;8.43;;;3.83;;
40757;SDS011;26462;47.384;19.218;2024-03-07T05:06:03;7.65;;;3.10;;
40757;SDS011;26462;47.384;19.218;2024-03-07T05:08:32;7.28;;;3.67;;
40757;SDS011;26462;47.384;19.218;2024-03-07T05:11:01;6.13;;;3.05;;
40757;SDS011;26462;47.384;19.218;2024-03-07T05:13:32;6.75;;;3.65;;
40757;SDS011;26462;47.384;19.218;2024-03-07T05:16:01;8.00;;;4.25;;
40757;SDS011;26462;47.384;19.218;2024-03-07T05:18:33;7.57;;;3.60;;
40757;SDS011;26462;47.384;19.218;2024-03-07T05:21:01;9.60;;;4.13;;
40757;SDS011;26462;47.384;19.218;2024-03-07T05:23:50;12.32;;;5.30;;
40757;SDS011;26462;47.384;19.218;2024-03-07T05:26:19;8.88;;;3.72;;
40757;SDS011;26462;47.384;19.218;2024-03-07T05:28:50;10.20;;;4.20;;
40757;SDS011;26462;47.384;19.218;2024-03-07T05:31:20;7.63;;;3.70;;
40757;SDS011;26462;47.384;19.218;2024-03-07T05:33:52;7.22;;;3.40;;
40757;SDS011;26462;47.384;19.218;2024-03-07T05:36:22;7.57;;;3.75;;
40757;SDS011;26462;47.384;19.218;2024-03-07T05:38:53;10.30;;;4.50;;
40757;SDS011;26462;47.384;19.218;2024-03-07T05:41:21;11.45;;;4.60;;
40757;SDS011;26462;47.384;19.218;2024-03-07T05:43:52;11.73;;;4.53;;
40757;SDS011;26462;47.384;19.218;2024-03-07T05:46:20;9.00;;;4.15;;
40757;SDS011;26462;47.384;19.218;2024-03-07T05:48:49;12.32;;;4.82;;
40757;SDS011;26462;47.384;19.218;2024-03-07T05:53:52;12.02;;;5.13;;
40757;SDS011;26462;47.384;19.218;2024-03-07T05:56:20;10.82;;;4.60;;
40757;SDS011;26462;47.384;19.218;2024-03-07T05:58:53;9.90;;;5.20;;
40757;SDS011;26462;47.384;19.218;2024-03-07T06:01:26;11.77;;;5.28;;
40757;SDS011;26462;47.384;19.218;2024-03-07T06:03:58;13.13;;;6.18;;
40757;SDS011;26462;47.384;19.218;2024-03-07T06:06:36;9.20;;;5.03;;
40757;SDS011;26462;47.384;19.218;2024-03-07T06:09:10;11.38;;;4.88;;
40757;SDS011;26462;47.384;19.218;2024-03-07T06:16:07;11.55;;;4.30;;
40757;SDS011;26462;47.384;19.218;2024-03-07T06:18:44;9.77;;;4.28;;
40757;SDS011;26462;47.384;19.218;2024-03-07T06:22:20;7.53;;;3.85;;
40757;SDS011;26462;47.384;19.218;2024-03-07T06:24:58;9.68;;;4.65;;
40757;SDS011;26462;47.384;19.218;2024-03-07T06:27:33;11.65;;;5.07;;
40757;SDS011;26462;47.384;19.218;2024-03-07T06:30:10;11.57;;;5.22;;
40757;SDS011;26462;47.384;19.218;2024-03-07T06:32:47;7.03;;;3.78;;
40757;SDS011;26462;47.384;19.218;2024-03-07T06:35:21;10.50;;;5.13;;
40757;SDS011;26462;47.384;19.218;2024-03-07T06:37:54;10.07;;;3.90;;
40757;SDS011;26462;47.384;19.218;2024-03-07T06:40:27;9.60;;;4.88;;
40757;SDS011;26462;47.384;19.218;2024-03-07T06:42:58;10.55;;;4.95;;
40757;SDS011;26462;47.384;19.218;2024-03-07T06:45:30;10.77;;;5.60;;
40757;SDS011;26462;47.384;19.218;2024-03-07T06:52:30;9.93;;;4.30;;
40757;SDS011;26462;47.384;19.218;2024-03-07T06:54:58;11.02;;;4.60;;
40757;SDS011;26462;47.384;19.218;2024-03-07T06:57:27;10.60;;;5.05;;
40757;SDS011;26462;47.384;19.218;2024-03-07T07:00:11;11.80;;;5.07;;
40757;SDS011;26462;47.384;19.218;2024-03-07T07:02:43;9.00;;;4.28;;
40757;SDS011;26462;47.384;19.218;2024-03-07T07:05:12;11.68;;;4.75;;
40757;SDS011;26462;47.384;19.218;2024-03-07T07:07:44;8.45;;;4.05;;
40757;SDS011;26462;47.384;19.218;2024-03-07T07:10:13;7.85;;;4.07;;
40757;SDS011;26462;47.384;19.218;2024-03-07T07:12:44;10.60;;;4.90;;
40757;SDS011;26462;47.384;19.218;2024-03-07T07:15:14;9.15;;;4.05;;
40757;SDS011;26462;47.384;19.218;2024-03-07T07:17:45;12.68;;;5.13;;
40757;SDS011;26462;47.384;19.218;2024-03-07T07:20:13;12.13;;;5.72;;
40757;SDS011;26462;47.384;19.218;2024-03-07T07:22:44;11.85;;;5.38;;
40757;SDS011;26462;47.384;19.218;2024-03-07T07:25:14;11.80;;;5.20;;
40757;SDS011;26462;47.384;19.218;2024-03-07T07:27:47;6.90;;;3.72;;
40757;SDS011;26462;47.384;19.218;2024-03-07T07:30:20;6.50;;;3.38;;
40757;SDS011;26462;47.384;19.218;2024-03-07T07:32:50;9.50;;;4.13;;
40757;SDS011;26462;47.384;19.218;2024-03-07T07:35:20;11.27;;;3.85;;
40757;SDS011;26462;47.384;19.218;2024-03-07T07:37:51;6.05;;;3.53;;
40757;SDS011;26462;47.384;19.218;2024-03-07T07:40:23;7.85;;;3.05;;
40757;SDS011;26462;47.384;19.218;2024-03-07T07:42:54;6.60;;;3.15;;
40757;SDS011;26462;47.384;19.218;2024-03-07T07:45:23;8.10;;;3.50;;
40757;SDS011;26462;47.384;19.218;2024-03-07T07:47:52;6.15;;;3.60;;
40757;SDS011;26462;47.384;19.218;2024-03-07T07:50:22;6.00;;;3.00;;
40757;SDS011;26462;47.384;19.218;2024-03-07T07:52:54;7.25;;;3.42;;
40757;SDS011;26462;47.384;19.218;2024-03-07T07:55:25;6.53;;;3.00;;
40757;SDS011;26462;47.384;19.218;2024-03-07T07:57:55;7.50;;;3.53;;
40757;SDS011;26462;47.384;19.218;2024-03-07T08:00:26;6.68;;;3.60;;
40757;SDS011;26462;47.384;19.218;2024-03-07T08:02:58;7.45;;;3.35;;
40757;SDS011;26462;47.384;19.218;2024-03-07T08:05:28;7.10;;;3.95;;
40757;SDS011;26462;47.384;19.218;2024-03-07T08:08:01;7.80;;;3.45;;
40757;SDS011;26462;47.384;19.218;2024-03-07T08:10:32;6.78;;;3.38;;
40757;SDS011;26462;47.384;19.218;2024-03-07T08:13:04;7.97;;;3.90;;
40757;SDS011;26462;47.384;19.218;2024-03-07T08:15:37;6.93;;;3.67;;
40757;SDS011;26462;47.384;19.218;2024-03-07T08:18:08;7.35;;;3.40;;
40757;SDS011;26462;47.384;19.218;2024-03-07T08:20:40;6.40;;;3.30;;
40757;SDS011;26462;47.384;19.218;2024-03-07T08:23:14;7.03;;;3.22;;
40757;SDS011;26462;47.384;19.218;2024-03-07T08:25:42;6.28;;;3.55;;
40757;SDS011;26462;47.384;19.218;2024-03-07T08:28:11;6.03;;;3.30;;
40757;SDS011;26462;47.384;19.218;2024-03-07T08:30:42;6.22;;;3.72;;
40757;SDS011;26462;47.384;19.218;2024-03-07T08:33:14;6.90;;;3.63;;
40757;SDS011;26462;47.384;19.218;2024-03-07T08:35:43;7.07;;;3.50;;
40757;SDS011;26462;47.384;19.218;2024-03-07T08:38:13;6.80;;;4.05;;
40757;SDS011;26462;47.384;19.218;2024-03-07T08:40:43;7.13;;;3.90;;
40757;SDS011;26462;47.384;19.218;2024-03-07T08:43:12;6.68;;;3.78;;
40757;SDS011;26462;47.384;19.218;2024-03-07T08:45:41;7.57;;;4.18;;
40757;SDS011;26462;47.384;19.218;2024-03-07T08:48:11;7.07;;;4.10;;
40757;SDS011;26462;47.384;19.218;2024-03-07T08:50:44;8.30;;;4.22;;
40757;SDS011;26462;47.384;19.218;2024-03-07T08:53:15;7.93;;;3.83;;
40757;SDS011;26462;47.384;19.218;2024-03-07T08:55:46;8.70;;;4.22;;
40757;SDS011;26462;47.384;19.218;2024-03-07T08:58:15;6.85;;;4.10;;
40757;SDS011;26462;47.384;19.218;2024-03-07T09:00:45;7.60;;;3.85;;
40757;SDS011;26462;47.384;19.218;2024-03-07T09:03:15;7.65;;;3.88;;
40757;SDS011;26462;47.384;19.218;2024-03-07T09:05:46;8.25;;;4.60;;
40757;SDS011;26462;47.384;19.218;2024-03-07T09:08:16;6.97;;;3.80;;
40757;SDS011;26462;47.384;19.218;2024-03-07T09:10:44;6.70;;;3.97;;
40757;SDS011;26462;47.384;19.218;2024-03-07T09:13:15;7.47;;;4.43;;
40757;SDS011;26462;47.384;19.218;2024-03-07T09:15:44;6.40;;;4.25;;
40757;SDS011;26462;47.384;19.218;2024-03-07T09:18:13;7.97;;;4.18;;
40757;SDS011;26462;47.384;19.218;2024-03-07T09:20:41;7.68;;;4.10;;
40757;SDS011;26462;47.384;19.218;2024-03-07T09:23:09;7.25;;;4.50;;
40757;SDS011;26462;47.384;19.218;2024-03-07T09:25:39;9.15;;;3.88;;
40757;SDS011;26462;47.384;19.218;2024-03-07T09:28:09;10.52;;;4.95;;
40757;SDS011;26462;47.384;19.218;2024-03-07T09:30:38;6.82;;;4.05;;
40757;SDS011;26462;47.384;19.218;2024-03-07T09:33:06;8.50;;;4.53;;
40757;SDS011;26462;47.384;19.218;2024-03-07T09:35:38;7.93;;;4.60;;
40757;SDS011;26462;47.384;19.218;2024-03-07T09:38:07;7.95;;;4.07;;
40757;SDS011;26462;47.384;19.218;2024-03-07T09:40:36;6.65;;;3.67;;
40757;SDS011;26462;47.384;19.218;2024-03-07T09:43:06;7.20;;;3.97;;
40757;SDS011;26462;47.384;19.218;2024-03-07T09:45:37;6.43;;;3.53;;
40757;SDS011;26462;47.384;19.218;2024-03-07T09:48:14;7.00;;;3.58;;
40757;SDS011;26462;47.384;19.218;2024-03-07T09:50:42;5.78;;;3.20;;
40757;SDS011;26462;47.384;19.218;2024-03-07T09:53:14;7.78;;;4.03;;
40757;SDS011;26462;47.384;19.218;2024-03-07T09:55:45;5.53;;;3.17;;
40757;SDS011;26462;47.384;19.218;2024-03-07T09:58:15;6.20;;;3.30;;
40757;SDS011;26462;47.384;19.218;2024-03-07T10:00:47;6.57;;;3.95;;
40757;SDS011;26462;47.384;19.218;2024-03-07T10:03:18;6.32;;;3.60;;
40757;SDS011;26462;47.384;19.218;2024-03-07T10:05:50;5.28;;;3.08;;
40757;SDS011;26462;47.384;19.218;2024-03-07T10:08:20;5.72;;;3.10;;
40757;SDS011;26462;47.384;19.218;2024-03-07T10:10:51;6.63;;;3.28;;
40757;SDS011;26462;47.384;19.218;2024-03-07T10:13:23;5.70;;;3.63;;
40757;SDS011;26462;47.384;19.218;2024-03-07T10:15:52;6.30;;;3.50;;
40757;SDS011;26462;47.384;19.218;2024-03-07T10:18:26;6.32;;;3.38;;
40757;SDS011;26462;47.384;19.218;2024-03-07T10:20:56;5.32;;;3.25;;
40757;SDS011;26462;47.384;19.218;2024-03-07T10:23:25;6.05;;;3.28;;
40757;SDS011;26462;47.384;19.218;2024-03-07T10:25:54;5.60;;;3.78;;
40757;SDS011;26462;47.384;19.218;2024-03-07T10:28:25;9.60;;;3.83;;
40757;SDS011;26462;47.384;19.218;2024-03-07T10:30:54;9.15;;;3.60;;
40757;SDS011;26462;47.384;19.218;2024-03-07T10:33:26;6.38;;;3.83;;
40757;SDS011;26462;47.384;19.218;2024-03-07T10:35:55;6.80;;;3.75;;
40757;SDS011;26462;47.384;19.218;2024-03-07T10:38:23;8.63;;;3.47;;
40757;SDS011;26462;47.384;19.218;2024-03-07T10:40:53;6.72;;;3.70;;
40757;SDS011;26462;47.384;19.218;2024-03-07T10:43:23;6.38;;;3.53;;
40757;SDS011;26462;47.384;19.218;2024-03-07T10:45:57;6.55;;;3.67;;
40757;SDS011;26462;47.384;19.218;2024-03-07T10:48:34;6.20;;;3.28;;
40757;SDS011;26462;47.384;19.218;2024-03-07T10:51:10;5.72;;;3.80;;
40757;SDS011;26462;47.384;19.218;2024-03-07T10:53:52;7.82;;;3.97;;
40757;SDS011;26462;47.384;19.218;2024-03-07T10:56:33;6.93;;;3.63;;
40757;SDS011;26462;47.384;19.218;2024-03-07T10:59:17;7.60;;;4.00;;
40757;SDS011;26462;47.384;19.218;2024-03-07T11:04:21;5.80;;;3.92;;
40757;SDS011;26462;47.384;19.218;2024-03-07T11:06:51;6.47;;;3.55;;
40757;SDS011;26462;47.384;19.218;2024-03-07T11:09:20;7.13;;;3.92;;
40757;SDS011;26462;47.384;19.218;2024-03-07T11:11:50;7.80;;;4.32;;
40757;SDS011;26462;47.384;19.218;2024-03-07T11:14:21;7.85;;;4.20;;
40757;SDS011;26462;47.384;19.218;2024-03-07T11:16:51;7.28;;;3.97;;
40757;SDS011;26462;47.384;19.218;2024-03-07T11:19:24;8.85;;;4.65;;
40757;SDS011;26462;47.384;19.218;2024-03-07T11:21:55;9.63;;;4.40;;
40757;SDS011;26462;47.384;19.218;2024-03-07T11:24:24;7.40;;;4.10;;
40757;SDS011;26462;47.384;19.218;2024-03-07T11:26:55;7.57;;;3.97;;
40757;SDS011;26462;47.384;19.218;2024-03-07T11:29:42;7.18;;;4.50;;
40757;SDS011;26462;47.384;19.218;2024-03-07T11:32:15;8.45;;;3.85;;
40757;SDS011;26462;47.384;19.218;2024-03-07T11:34:44;10.35;;;4.85;;
40757;SDS011;26462;47.384;19.218;2024-03-07T11:37:17;7.78;;;3.72;;
40757;SDS011;26462;47.384;19.218;2024-03-07T11:39:50;7.35;;;4.38;;
40757;SDS011;26462;47.384;19.218;2024-03-07T11:42:24;7.32;;;4.45;;
40757;SDS011;26462;47.384;19.218;2024-03-07T11:44:55;7.97;;;4.47;;
40757;SDS011;26462;47.384;19.218;2024-03-07T11:47:25;6.90;;;3.70;;
40757;SDS011;26462;47.384;19.218;2024-03-07T11:49:56;7.18;;;3.85;;
40757;SDS011;26462;47.384;19.218;2024-03-07T11:52:25;8.15;;;4.40;;
40757;SDS011;26462;47.384;19.218;2024-03-07T11:54:55;8.75;;;4.25;;
40757;SDS011;26462;47.384;19.218;2024-03-07T11:57:31;7.97;;;4.15;;
40757;SDS011;26462;47.384;19.218;2024-03-07T12:00:02;7.13;;;4.45;;
40757;SDS011;26462;47.384;19.218;2024-03-07T12:02:39;9.35;;;4.70;;
40757;SDS011;26462;47.384;19.218;2024-03-07T12:05:08;9.85;;;5.22;;
40757;SDS011;26462;47.384;19.218;2024-03-07T12:07:36;8.48;;;4.20;;
40757;SDS011;26462;47.384;19.218;2024-03-07T12:10:05;7.45;;;4.25;;
40757;SDS011;26462;47.384;19.218;2024-03-07T12:12:35;9.02;;;4.57;;
40757;SDS011;26462;47.384;19.218;2024-03-07T12:15:07;8.60;;;4.55;;
40757;SDS011;26462;47.384;19.218;2024-03-07T12:17:47;9.75;;;4.43;;
40757;SDS011;26462;47.384;19.218;2024-03-07T12:20:17;9.07;;;4.90;;
40757;SDS011;26462;47.384;19.218;2024-03-07T12:22:58;9.63;;;5.07;;
40757;SDS011;26462;47.384;19.218;2024-03-07T12:25:30;9.52;;;4.88;;
40757;SDS011;26462;47.384;19.218;2024-03-07T12:28:00;7.68;;;4.57;;
40757;SDS011;26462;47.384;19.218;2024-03-07T12:30:34;8.63;;;4.55;;
40757;SDS011;26462;47.384;19.218;2024-03-07T12:33:04;9.82;;;5.43;;
40757;SDS011;26462;47.384;19.218;2024-03-07T12:35:34;10.32;;;5.20;;
40757;SDS011;26462;47.384;19.218;2024-03-07T12:38:03;16.30;;;6.00;;
40757;SDS011;26462;47.384;19.218;2024-03-07T12:40:31;9.00;;;4.57;;
40757;SDS011;26462;47.384;19.218;2024-03-07T12:43:12;11.83;;;5.83;;
40757;SDS011;26462;47.384;19.218;2024-03-07T12:45:44;9.30;;;4.80;;
40757;SDS011;26462;47.384;19.218;2024-03-07T12:48:13;9.13;;;5.00;;
40757;SDS011;26462;47.384;19.218;2024-03-07T12:50:45;12.02;;;5.63;;
40757;SDS011;26462;47.384;19.218;2024-03-07T12:53:17;10.57;;;5.53;;
40757;SDS011;26462;47.384;19.218;2024-03-07T12:55:45;10.00;;;5.00;;
40757;SDS011;26462;47.384;19.218;2024-03-07T12:58:14;10.05;;;5.75;;
40757;SDS011;26462;47.384;19.218;2024-03-07T13:00:45;9.13;;;5.13;;
40757;SDS011;26462;47.384;19.218;2024-03-07T13:03:14;8.35;;;4.53;;
40757;SDS011;26462;47.384;19.218;2024-03-07T13:05:43;9.98;;;4.78;;
40757;SDS011;26462;47.384;19.218;2024-03-07T13:08:12;9.55;;;4.82;;
40757;SDS011;26462;47.384;19.218;2024-03-07T13:10:42;9.30;;;4.72;;
40757;SDS011;26462;47.384;19.218;2024-03-07T13:13:13;10.82;;;5.03;;
40757;SDS011;26462;47.384;19.218;2024-03-07T13:15:42;10.48;;;4.85;;
40757;SDS011;26462;47.384;19.218;2024-03-07T13:18:14;9.57;;;4.88;;
40757;SDS011;26462;47.384;19.218;2024-03-07T13:20:43;11.20;;;5.05;;
40757;SDS011;26462;47.384;19.218;2024-03-07T13:23:12;10.88;;;5.50;;
40757;SDS011;26462;47.384;19.218;2024-03-07T13:25:41;10.32;;;5.18;;
40757;SDS011;26462;47.384;19.218;2024-03-07T13:28:11;10.60;;;5.60;;
40757;SDS011;26462;47.384;19.218;2024-03-07T13:30:44;11.00;;;4.85;;
40757;SDS011;26462;47.384;19.218;2024-03-07T13:33:16;11.27;;;4.93;;
40757;SDS011;26462;47.384;19.218;2024-03-07T13:35:45;11.95;;;6.10;;
40757;SDS011;26462;47.384;19.218;2024-03-07T13:38:13;11.70;;;6.28;;
40757;SDS011;26462;47.384;19.218;2024-03-07T13:40:42;12.15;;;5.93;;
40757;SDS011;26462;47.384;19.218;2024-03-07T13:43:10;11.93;;;6.40;;
40757;SDS011;26462;47.384;19.218;2024-03-07T13:45:39;11.95;;;6.00;;
40757;SDS011;26462;47.384;19.218;2024-03-07T13:48:11;11.82;;;5.78;;
40757;SDS011;26462;47.384;19.218;2024-03-07T13:50:40;10.57;;;5.72;;
40757;SDS011;26462;47.384;19.218;2024-03-07T13:53:24;12.65;;;5.93;;
40757;SDS011;26462;47.384;19.218;2024-03-07T13:56:13;10.00;;;5.07;;
40757;SDS011;26462;47.384;19.218;2024-03-07T13:59:23;11.23;;;5.82;;
40757;SDS011;26462;47.384;19.218;2024-03-07T14:02:23;12.35;;;6.05;;
40757;SDS011;26462;47.384;19.218;2024-03-07T14:08:28;10.23;;;4.68;;
40757;SDS011;26462;47.384;19.218;2024-03-07T14:14:45;11.55;;;5.63;;
40757;SDS011;26462;47.384;19.218;2024-03-07T14:17:58;10.50;;;6.20;;
40757;SDS011;26462;47.384;19.218;2024-03-07T14:21:07;10.60;;;6.00;;
40757;SDS011;26462;47.384;19.218;2024-03-07T14:24:09;12.98;;;6.07;;
40757;SDS011;26462;47.384;19.218;2024-03-07T14:27:18;13.50;;;5.95;;
40757;SDS011;26462;47.384;19.218;2024-03-07T14:29:57;13.80;;;6.95;;
40757;SDS011;26462;47.384;19.218;2024-03-07T14:32:49;14.73;;;7.90;;
40757;SDS011;26462;47.384;19.218;2024-03-07T14:35:22;12.38;;;7.55;;
40757;SDS011;26462;47.384;19.218;2024-03-07T14:38:04;14.77;;;6.75;;
40757;SDS011;26462;47.384;19.218;2024-03-07T14:40:50;11.02;;;6.65;;
40757;SDS011;26462;47.384;19.218;2024-03-07T14:43:19;16.25;;;6.68;;
40757;SDS011;26462;47.384;19.218;2024-03-07T14:45:48;13.57;;;7.25;;
40757;SDS011;26462;47.384;19.218;2024-03-07T14:48:18;14.05;;;6.68;;
40757;SDS011;26462;47.384;19.218;2024-03-07T14:50:47;13.27;;;7.07;;
40757;SDS011;26462;47.384;19.218;2024-03-07T14:53:17;12.75;;;6.47;;
40757;SDS011;26462;47.384;19.218;2024-03-07T14:55:46;17.23;;;8.00;;
40757;SDS011;26462;47.384;19.218;2024-03-07T14:58:15;16.52;;;8.75;;
40757;SDS011;26462;47.384;19.218;2024-03-07T15:00:44;15.20;;;7.55;;
40757;SDS011;26462;47.384;19.218;2024-03-07T15:03:24;13.52;;;7.00;;
40757;SDS011;26462;47.384;19.218;2024-03-07T15:05:56;15.00;;;7.60;;
40757;SDS011;26462;47.384;19.218;2024-03-07T15:08:27;15.43;;;6.78;;
40757;SDS011;26462;47.384;19.218;2024-03-07T15:10:56;15.25;;;7.88;;
40757;SDS011;26462;47.384;19.218;2024-03-07T15:13:39;15.35;;;7.38;;